createdAt,value
2019-03-22T00:02:26.783Z,29.93
2019-03-22T00:04:55.464Z,26.97
2019-03-22T00:07:23.928Z,28.63
2019-03-22T00:09:52.439Z,27.00
2019-03-22T00:12:20.929Z,27.93
2019-03-22T00:14:49.319Z,27.60
2019-03-22T00:17:17.906Z,26.60
2019-03-22T00:19:46.330Z,28.73
2019-03-22T00:22:15.153Z,27.37
2019-03-22T00:24:44.446Z,29.23
2019-03-22T00:27:16.799Z,29.17
2019-03-22T00:29:43.197Z,32.03
2019-03-22T00:32:11.938Z,30.70
2019-03-22T00:34:40.335Z,30.87
2019-03-22T00:37:08.716Z,29.27
2019-03-22T00:39:37.105Z,26.90
2019-03-22T00:42:05.518Z,28.03
2019-03-22T00:44:33.906Z,26.33
2019-03-22T00:47:02.549Z,28.00
2019-03-22T00:49:30.980Z,28.37
2019-03-22T00:51:59.455Z,29.00
2019-03-22T00:54:28.267Z,27.83
2019-03-22T00:56:56.673Z,26.90
2019-03-22T00:59:25.360Z,28.10
2019-03-22T01:01:54.120Z,30.73
2019-03-22T01:04:22.519Z,26.90
2019-03-22T01:06:51.156Z,26.53
2019-03-22T01:09:19.989Z,27.10
2019-03-22T01:11:48.381Z,27.93
2019-03-22T01:14:17.256Z,26.20
2019-03-22T01:16:46.033Z,27.30
2019-03-22T01:19:14.544Z,29.83
2019-03-22T01:21:43.022Z,27.40
2019-03-22T01:24:11.594Z,26.30
2019-03-22T01:26:40.267Z,26.33
2019-03-22T01:29:08.764Z,24.27
2019-03-22T01:31:37.210Z,25.90
2019-03-22T01:34:05.928Z,25.20
2019-03-22T01:36:34.445Z,28.07
2019-03-22T01:39:02.946Z,25.77
2019-03-22T01:41:31.683Z,27.30
2019-03-22T01:44:00.068Z,24.93
2019-03-22T01:46:28.457Z,24.10
2019-03-22T01:48:56.846Z,24.70
2019-03-22T01:51:25.337Z,24.87
2019-03-22T01:53:53.725Z,22.30
2019-03-22T01:56:22.457Z,22.93
2019-03-22T01:58:51.149Z,24.87
2019-03-22T02:01:19.611Z,23.87
2019-03-22T02:03:48.410Z,25.70
2019-03-22T02:06:16.818Z,22.30
2019-03-22T02:08:45.212Z,23.90
2019-03-22T02:11:13.743Z,22.20
2019-03-22T02:13:42.228Z,22.37
2019-03-22T02:16:10.712Z,23.50
2019-03-22T02:18:39.181Z,23.80
2019-03-22T02:21:07.651Z,22.70
2019-03-22T02:23:36.669Z,22.70
2019-03-22T02:26:05.061Z,23.60
2019-03-22T02:28:33.456Z,23.87
2019-03-22T02:31:02.119Z,23.63
2019-03-22T02:33:30.729Z,23.60
2019-03-22T02:35:59.118Z,22.93
2019-03-22T02:38:27.496Z,23.37
2019-03-22T02:40:55.897Z,24.30
2019-03-22T02:43:24.625Z,24.60
2019-03-22T02:45:53.015Z,22.87
2019-03-22T02:48:21.894Z,22.57
2019-03-22T02:50:50.288Z,21.97
2019-03-22T02:53:18.685Z,23.83
2019-03-22T02:55:47.107Z,28.93
2019-03-22T02:58:22.128Z,25.43
2019-03-22T03:00:45.604Z,25.23
2019-03-22T03:03:13.983Z,26.73
2019-03-22T03:05:42.393Z,23.90
2019-03-22T03:08:10.860Z,24.87
2019-03-22T03:10:39.253Z,23.20
2019-03-22T03:13:07.648Z,25.80
2019-03-22T03:15:36.105Z,24.77
2019-03-22T03:18:04.628Z,24.03
2019-03-22T03:20:33.029Z,22.83
2019-03-22T03:23:01.762Z,24.00
2019-03-22T03:25:30.189Z,21.97
2019-03-22T03:27:58.671Z,21.17
2019-03-22T03:30:27.064Z,20.27
2019-03-22T03:32:55.799Z,21.60
2019-03-22T03:35:24.298Z,22.03
2019-03-22T03:37:53.065Z,21.20
2019-03-22T03:40:21.531Z,22.10
2019-03-22T03:42:50.156Z,22.03
2019-03-22T03:45:27.927Z,22.07
2019-03-22T03:47:56.388Z,22.13
2019-03-22T03:50:25.113Z,21.13
2019-03-22T03:52:53.495Z,22.00
2019-03-22T03:55:21.889Z,21.70
2019-03-22T03:57:50.651Z,21.50
2019-03-22T04:00:19.382Z,20.07
2019-03-22T04:02:47.769Z,21.83
2019-03-22T04:05:16.165Z,21.07
2019-03-22T04:07:44.870Z,21.00
2019-03-22T04:10:13.662Z,19.40
2019-03-22T04:12:42.343Z,20.07
2019-03-22T04:15:11.684Z,20.93
2019-03-22T04:17:40.065Z,20.00
2019-03-22T04:20:08.737Z,21.87
2019-03-22T04:22:37.172Z,22.30
2019-03-22T04:25:07.214Z,22.77
2019-03-22T04:27:35.694Z,24.50
2019-03-22T04:30:05.862Z,21.90
2019-03-22T04:32:34.474Z,21.47
2019-03-22T04:35:03.429Z,21.60
2019-03-22T04:37:32.020Z,21.77
2019-03-22T04:40:00.539Z,24.07
2019-03-22T04:42:29.122Z,22.43
2019-03-22T04:44:57.622Z,22.03
2019-03-22T04:47:26.699Z,21.17
2019-03-22T04:49:55.837Z,22.47
2019-03-22T04:52:26.355Z,20.37
2019-03-22T04:54:58.065Z,19.03
2019-03-22T04:57:27.886Z,20.30
2019-03-22T04:59:58.272Z,20.63
2019-03-22T05:02:28.007Z,21.67
2019-03-22T05:04:57.037Z,22.30
2019-03-22T05:07:25.520Z,22.53
2019-03-22T05:09:54.954Z,22.20
2019-03-22T05:12:25.105Z,24.57
2019-03-22T05:14:55.885Z,21.17
2019-03-22T05:17:25.315Z,21.53
2019-03-22T05:19:56.041Z,21.07
2019-03-22T05:22:26.976Z,20.73
2019-03-22T05:24:57.714Z,21.27
2019-03-22T05:27:27.447Z,19.93
2019-03-22T05:29:58.393Z,19.10
2019-03-22T05:32:26.808Z,18.57
2019-03-22T05:34:55.207Z,18.70
2019-03-22T05:37:24.201Z,22.27
2019-03-22T05:39:52.604Z,20.40
2019-03-22T05:42:20.990Z,19.80
2019-03-22T05:44:49.379Z,18.63
2019-03-22T05:47:17.761Z,20.23
2019-03-22T05:49:46.167Z,20.27
2019-03-22T05:52:14.549Z,21.33
2019-03-22T05:54:43.007Z,20.87
2019-03-22T05:57:13.723Z,19.50
2019-03-22T05:59:43.108Z,20.37
2019-03-22T06:02:11.725Z,20.97
2019-03-22T06:04:40.132Z,20.83
2019-03-22T06:07:08.519Z,23.07
2019-03-22T06:09:36.925Z,22.80
2019-03-22T06:12:05.421Z,22.30
2019-03-22T06:14:33.918Z,22.50
2019-03-22T06:17:02.666Z,21.40
2019-03-22T06:19:31.046Z,18.53
2019-03-22T06:21:59.527Z,22.90
2019-03-22T06:24:27.919Z,19.80
2019-03-22T06:26:56.358Z,20.57
2019-03-22T06:29:24.742Z,21.07
2019-03-22T06:31:53.126Z,20.57
2019-03-22T06:34:21.829Z,23.33
2019-03-22T06:36:50.525Z,19.33
2019-03-22T06:39:18.928Z,21.00
2019-03-22T06:41:47.586Z,22.20
2019-03-22T06:44:15.989Z,22.93
2019-03-22T06:46:44.650Z,24.33
2019-03-22T06:49:13.048Z,24.37
2019-03-22T06:51:41.625Z,23.30
2019-03-22T06:54:10.302Z,23.07
2019-03-22T06:56:38.897Z,21.77
2019-03-22T06:59:07.668Z,19.23
2019-03-22T07:01:36.058Z,20.13
2019-03-22T07:04:04.516Z,22.50
2019-03-22T07:06:32.918Z,20.37
2019-03-22T07:09:01.303Z,21.93
2019-03-22T07:11:29.795Z,23.10
2019-03-22T07:13:58.267Z,28.10
2019-03-22T07:16:26.709Z,21.77
2019-03-22T07:18:55.523Z,19.67
2019-03-22T07:21:23.912Z,21.23
2019-03-22T07:23:52.469Z,19.93
2019-03-22T07:26:20.875Z,25.10
2019-03-22T07:28:49.643Z,21.80
2019-03-22T07:31:18.262Z,21.50
2019-03-22T07:33:46.659Z,20.77
2019-03-22T07:36:15.048Z,20.57
2019-03-22T07:38:43.466Z,20.80
2019-03-22T07:41:11.875Z,20.37
2019-03-22T07:43:40.247Z,20.93
2019-03-22T07:46:08.655Z,19.47
2019-03-22T07:48:37.037Z,24.37
2019-03-22T07:51:05.980Z,22.73
2019-03-22T07:53:34.373Z,19.87
2019-03-22T07:56:02.837Z,19.47
2019-03-22T07:58:31.529Z,23.07
2019-03-22T08:01:00.217Z,19.67
2019-03-22T08:03:28.702Z,24.53
2019-03-22T08:05:57.196Z,20.23
2019-03-22T08:08:26.066Z,21.00
2019-03-22T08:10:54.549Z,20.70
2019-03-22T08:13:22.961Z,19.13
2019-03-22T08:15:51.354Z,18.83
2019-03-22T08:18:19.719Z,20.77
2019-03-22T08:20:48.262Z,18.90
2019-03-22T08:23:22.677Z,19.67
2019-03-22T08:25:51.524Z,23.57
2019-03-22T08:28:19.924Z,21.27
2019-03-22T08:30:48.316Z,19.43
2019-03-22T08:33:17.362Z,19.37
2019-03-22T08:35:45.743Z,22.07
2019-03-22T08:38:14.188Z,18.80
2019-03-22T08:40:42.644Z,18.90
2019-03-22T08:43:11.074Z,20.30
2019-03-22T08:45:40.362Z,18.73
2019-03-22T08:48:08.749Z,19.80
2019-03-22T08:50:37.265Z,19.13
2019-03-22T08:53:05.906Z,18.67
2019-03-22T08:55:34.295Z,20.63
2019-03-22T08:58:02.758Z,17.27
2019-03-22T09:00:39.158Z,20.93
2019-03-22T09:03:01.268Z,18.37
2019-03-22T09:05:29.895Z,16.60
2019-03-22T09:07:58.267Z,17.13
2019-03-22T09:10:26.755Z,18.57
2019-03-22T09:12:55.205Z,17.23
2019-03-22T09:15:24.075Z,17.23
2019-03-22T09:17:52.764Z,21.30
2019-03-22T09:20:21.291Z,18.07
2019-03-22T09:22:49.686Z,18.13
2019-03-22T09:25:18.052Z,19.20
2019-03-22T09:27:46.840Z,15.80
2019-03-22T09:30:15.677Z,16.83
2019-03-22T09:32:44.074Z,16.93
2019-03-22T09:35:12.478Z,16.90
2019-03-22T09:37:43.103Z,17.23
2019-03-22T09:40:11.966Z,17.47
2019-03-22T09:42:40.433Z,17.37
2019-03-22T09:45:10.443Z,17.30
2019-03-22T09:47:39.013Z,17.23
2019-03-22T09:50:09.965Z,17.97
2019-03-22T09:52:38.373Z,19.17
2019-03-22T09:55:13.432Z,19.47
2019-03-22T09:57:37.092Z,17.30
2019-03-22T10:00:08.681Z,19.07
2019-03-22T10:02:37.086Z,17.93
2019-03-22T10:05:07.206Z,18.57
2019-03-22T10:07:35.621Z,17.33
2019-03-22T10:10:06.665Z,16.73
2019-03-22T10:12:35.054Z,17.33
2019-03-22T10:15:04.737Z,16.97
2019-03-22T10:17:33.173Z,17.90
2019-03-22T10:20:02.332Z,17.83
2019-03-22T10:22:30.752Z,16.70
2019-03-22T10:24:59.131Z,18.33
2019-03-22T10:27:27.567Z,18.63
2019-03-22T10:29:55.904Z,15.80
2019-03-22T10:32:24.387Z,15.20
2019-03-22T10:34:52.771Z,15.97
2019-03-22T10:37:21.530Z,15.47
2019-03-22T10:39:50.304Z,15.60
2019-03-22T10:42:18.729Z,15.10
2019-03-22T10:44:47.165Z,13.50
2019-03-22T10:47:18.110Z,12.70
2019-03-22T10:49:45.991Z,13.73
2019-03-22T10:52:14.646Z,14.57
2019-03-22T10:54:43.380Z,13.93
2019-03-22T10:57:11.805Z,14.80
2019-03-22T10:59:40.191Z,14.33
2019-03-22T11:02:09.330Z,13.40
2019-03-22T11:04:37.731Z,13.53
2019-03-22T11:07:06.120Z,12.67
2019-03-22T11:09:34.628Z,12.77
2019-03-22T11:12:11.908Z,12.10
2019-03-22T11:14:33.911Z,12.33
2019-03-22T11:17:02.318Z,12.70
2019-03-22T11:19:30.707Z,13.37
2019-03-22T11:21:59.254Z,12.30
2019-03-22T11:24:28.050Z,13.07
2019-03-22T11:26:56.733Z,13.30
2019-03-22T11:29:25.422Z,13.43
2019-03-22T11:31:53.845Z,14.50
2019-03-22T11:34:22.225Z,13.10
2019-03-22T11:36:50.609Z,12.37
2019-03-22T11:39:19.012Z,13.33
2019-03-22T11:41:47.719Z,15.20
2019-03-22T11:44:16.417Z,13.63
2019-03-22T11:46:44.938Z,11.40
2019-03-22T11:49:13.327Z,13.03
2019-03-22T11:51:42.059Z,11.60
2019-03-22T11:54:10.450Z,12.83
2019-03-22T11:56:38.837Z,12.70
2019-03-22T11:59:07.246Z,11.50
2019-03-22T12:01:35.881Z,11.63
2019-03-22T12:04:04.772Z,12.87
2019-03-22T12:06:33.188Z,13.13
2019-03-22T12:09:01.576Z,13.30
2019-03-22T12:11:29.993Z,13.60
2019-03-22T12:13:58.364Z,11.70
2019-03-22T12:16:26.764Z,11.97
2019-03-22T12:18:55.154Z,12.50
2019-03-22T12:21:23.578Z,12.73
2019-03-22T12:23:52.319Z,13.20
2019-03-22T12:26:21.038Z,12.30
2019-03-22T12:28:49.438Z,13.20
2019-03-22T12:31:19.501Z,11.57
2019-03-22T12:33:48.086Z,11.27
2019-03-22T12:36:16.779Z,12.00
2019-03-22T12:38:45.458Z,10.57
2019-03-22T12:41:14.145Z,11.53
2019-03-22T12:43:42.833Z,11.03
2019-03-22T12:46:11.236Z,12.83
2019-03-22T12:48:39.647Z,11.67
2019-03-22T12:51:08.025Z,10.83
2019-03-22T12:53:36.406Z,11.47
2019-03-22T12:56:05.260Z,11.50
2019-03-22T12:58:33.652Z,11.67
2019-03-22T13:01:02.106Z,11.47
2019-03-22T13:03:30.497Z,10.20
2019-03-22T13:05:59.164Z,11.10
2019-03-22T13:08:27.631Z,12.20
2019-03-22T13:10:56.011Z,10.17
2019-03-22T13:13:24.388Z,10.03
2019-03-22T13:15:52.907Z,9.27
2019-03-22T13:18:21.379Z,11.33
2019-03-22T13:20:51.181Z,9.97
2019-03-22T13:23:19.835Z,10.40
2019-03-22T13:25:48.219Z,10.60
2019-03-22T13:28:16.699Z,10.00
2019-03-22T13:30:45.111Z,10.87
2019-03-22T13:33:13.488Z,11.13
2019-03-22T13:35:41.959Z,10.10
2019-03-22T13:38:10.643Z,9.60
2019-03-22T13:40:39.968Z,10.10
2019-03-22T13:43:08.365Z,9.97
2019-03-22T13:45:36.747Z,11.07
2019-03-22T13:48:05.443Z,9.43
2019-03-22T13:50:34.322Z,9.47
2019-03-22T13:53:02.682Z,9.60
2019-03-22T13:55:31.155Z,10.30
2019-03-22T13:57:59.649Z,9.63
2019-03-22T14:00:28.414Z,10.40
2019-03-22T14:03:03.064Z,10.30
2019-03-22T14:05:28.741Z,9.40
2019-03-22T14:07:57.445Z,10.53
2019-03-22T14:10:35.025Z,9.20
2019-03-22T14:13:05.585Z,10.63
2019-03-22T14:15:35.946Z,9.43
2019-03-22T14:18:05.468Z,9.20
2019-03-22T14:20:33.952Z,10.63
2019-03-22T14:23:02.434Z,9.87
2019-03-22T14:25:30.827Z,10.63
2019-03-22T14:27:59.306Z,9.47
2019-03-22T14:30:27.676Z,8.60
2019-03-22T14:32:56.063Z,10.20
2019-03-22T14:35:24.481Z,8.47
2019-03-22T14:37:52.865Z,8.53
2019-03-22T14:40:21.250Z,9.63
2019-03-22T14:42:49.638Z,8.97
2019-03-22T14:45:18.014Z,9.60
2019-03-22T14:47:46.583Z,10.53
2019-03-22T14:50:15.030Z,9.23
2019-03-22T14:52:43.411Z,8.80
2019-03-22T14:55:12.076Z,8.77
2019-03-22T14:57:49.172Z,8.20
2019-03-22T15:00:12.551Z,8.50
2019-03-22T15:02:41.030Z,7.73
2019-03-22T15:05:09.424Z,8.00
2019-03-22T15:07:37.867Z,8.70
2019-03-22T15:10:09.452Z,7.80
2019-03-22T15:12:37.970Z,8.03
2019-03-22T15:15:13.571Z,7.97
2019-03-22T15:17:45.991Z,7.87
2019-03-22T15:20:34.680Z,7.37
2019-03-22T15:23:07.576Z,7.83
2019-03-22T15:25:37.589Z,8.30
2019-03-22T15:28:10.343Z,8.50
2019-03-22T15:30:56.673Z,9.17
2019-03-22T15:33:34.214Z,8.17
2019-03-22T15:36:15.169Z,8.57
2019-03-22T15:38:45.604Z,8.23
2019-03-22T15:41:14.055Z,8.53
2019-03-22T15:43:42.441Z,9.20
2019-03-22T15:46:10.815Z,8.73
2019-03-22T15:48:39.194Z,9.10
2019-03-22T15:51:07.583Z,9.63
2019-03-22T15:53:36.375Z,10.07
2019-03-22T15:56:05.162Z,10.80
2019-03-22T15:58:33.955Z,10.70
2019-03-22T16:01:02.424Z,10.07
2019-03-22T16:03:32.526Z,9.33
2019-03-22T16:06:01.132Z,9.90
2019-03-22T16:08:29.510Z,9.13
2019-03-22T16:10:57.904Z,10.23
2019-03-22T16:13:26.489Z,10.40
2019-03-22T16:15:58.068Z,10.60
2019-03-22T16:18:28.359Z,10.73
2019-03-22T16:21:00.055Z,10.93
2019-03-22T16:23:30.279Z,10.10
2019-03-22T16:25:58.711Z,10.50
2019-03-22T16:28:27.483Z,10.10
2019-03-22T16:30:55.882Z,9.97
2019-03-22T16:33:24.266Z,11.00
2019-03-22T16:35:55.291Z,10.40
2019-03-22T16:38:24.296Z,10.53
2019-03-22T16:40:52.853Z,11.23
2019-03-22T16:43:21.243Z,10.83
2019-03-22T16:45:49.716Z,11.00
2019-03-22T16:48:18.434Z,10.60
2019-03-22T16:50:46.847Z,12.40
2019-03-22T16:53:15.228Z,11.13
2019-03-22T16:55:43.614Z,11.07
2019-03-22T16:58:12.120Z,10.20
2019-03-22T17:00:40.626Z,12.03
2019-03-22T17:03:11.589Z,11.80
2019-03-22T17:05:40.251Z,12.40
2019-03-22T17:08:08.806Z,11.40
2019-03-22T17:10:37.946Z,10.83
2019-03-22T17:13:06.408Z,11.40
2019-03-22T17:15:34.846Z,11.13
2019-03-22T17:18:03.510Z,10.83
2019-03-22T17:20:31.892Z,11.03
2019-03-22T17:23:00.355Z,10.67
2019-03-22T17:25:29.138Z,11.13
2019-03-22T17:27:57.769Z,10.80
2019-03-22T17:30:26.409Z,10.43
2019-03-22T17:32:54.815Z,10.20
2019-03-22T17:35:23.489Z,10.00
2019-03-22T17:37:51.866Z,9.20
2019-03-22T17:40:20.254Z,10.70
2019-03-22T17:42:48.720Z,10.03
2019-03-22T17:45:18.353Z,10.40
2019-03-22T17:47:46.979Z,8.83
2019-03-22T17:50:16.511Z,9.67
2019-03-22T17:52:44.888Z,9.10
2019-03-22T17:55:13.712Z,8.97
2019-03-22T17:57:42.365Z,9.43
2019-03-22T18:00:18.122Z,13.40
2019-03-22T18:02:46.830Z,9.10
2019-03-22T18:05:15.651Z,9.30
2019-03-22T18:07:44.080Z,9.03
2019-03-22T18:10:12.895Z,9.13
2019-03-22T18:12:41.299Z,8.70
2019-03-22T18:15:13.933Z,8.53
2019-03-22T18:17:42.315Z,9.00
2019-03-22T18:20:13.461Z,9.17
2019-03-22T18:22:42.024Z,9.17
2019-03-22T18:25:11.341Z,9.90
2019-03-22T18:27:40.114Z,10.70
2019-03-22T18:30:10.854Z,10.43
2019-03-22T18:32:39.231Z,10.20
2019-03-22T18:35:08.438Z,11.90
2019-03-22T18:37:37.036Z,12.07
2019-03-22T18:40:08.426Z,13.27
2019-03-22T18:42:36.853Z,11.93
2019-03-22T18:45:08.271Z,13.43
2019-03-22T18:47:36.779Z,11.63
2019-03-22T18:50:09.862Z,10.03
2019-03-22T18:52:38.323Z,15.03
2019-03-22T18:55:08.161Z,9.83
2019-03-22T18:57:37.154Z,9.57
2019-03-22T19:00:08.633Z,10.23
2019-03-22T19:02:37.019Z,10.43
2019-03-22T19:05:07.351Z,10.17
2019-03-22T19:07:35.916Z,11.50
2019-03-22T19:10:07.043Z,9.93
2019-03-22T19:12:35.425Z,11.40
2019-03-22T19:15:05.796Z,11.73
2019-03-22T19:17:34.261Z,10.90
2019-03-22T19:20:02.639Z,12.07
2019-03-22T19:22:31.059Z,11.67
2019-03-22T19:24:59.460Z,12.90
2019-03-22T19:27:27.844Z,11.70
2019-03-22T19:29:56.271Z,11.90
2019-03-22T19:32:24.642Z,11.93
2019-03-22T19:34:54.559Z,10.83
2019-03-22T19:37:23.432Z,10.70
2019-03-22T19:39:52.092Z,11.60
2019-03-22T19:42:20.572Z,10.50
2019-03-22T19:44:48.995Z,9.63
2019-03-22T19:47:17.424Z,10.13
2019-03-22T19:49:45.905Z,9.53
2019-03-22T19:52:14.342Z,10.70
2019-03-22T19:54:42.864Z,10.70
2019-03-22T19:57:11.566Z,10.40
2019-03-22T19:59:39.965Z,10.43
2019-03-22T20:02:08.346Z,10.30
2019-03-22T20:04:36.758Z,10.20
2019-03-22T20:07:05.386Z,11.00
2019-03-22T20:09:33.765Z,10.60
2019-03-22T20:12:02.659Z,10.07
2019-03-22T20:14:31.348Z,9.70
2019-03-22T20:16:59.737Z,11.50
2019-03-22T20:19:28.230Z,9.83
2019-03-22T20:21:56.607Z,10.70
2019-03-22T20:24:24.990Z,10.40
2019-03-22T20:26:53.383Z,10.30
2019-03-22T20:29:21.783Z,10.63
2019-03-22T20:31:50.175Z,10.50
2019-03-22T20:34:18.560Z,9.67
2019-03-22T20:36:46.956Z,10.40
2019-03-22T20:39:15.411Z,9.83
2019-03-22T20:41:43.803Z,10.60
2019-03-22T20:44:12.266Z,10.20
2019-03-22T20:46:40.708Z,9.97
2019-03-22T20:49:09.082Z,10.40
2019-03-22T20:51:37.885Z,10.50
2019-03-22T20:54:06.291Z,11.73
2019-03-22T20:56:34.671Z,11.40
2019-03-22T20:59:03.068Z,10.07
2019-03-22T21:01:32.086Z,11.47
2019-03-22T21:04:00.597Z,10.27
2019-03-22T21:06:29.378Z,11.07
2019-03-22T21:08:58.057Z,11.00
2019-03-22T21:11:26.439Z,12.00
2019-03-22T21:13:56.501Z,11.87
2019-03-22T21:16:25.144Z,11.40
2019-03-22T21:18:53.526Z,12.23
2019-03-22T21:21:25.388Z,12.33
2019-03-22T21:23:52.522Z,12.57
2019-03-22T21:26:21.700Z,14.23
2019-03-22T21:28:50.524Z,13.17
2019-03-22T21:31:18.908Z,12.30
2019-03-22T21:33:47.328Z,11.97
2019-03-22T21:36:16.979Z,12.33
2019-03-22T21:38:45.651Z,12.43
2019-03-22T21:41:14.062Z,12.00
2019-03-22T21:43:42.527Z,12.50
2019-03-22T21:46:10.923Z,12.47
2019-03-22T21:48:39.786Z,13.50
2019-03-22T21:51:08.176Z,13.87
2019-03-22T21:53:36.659Z,13.40
2019-03-22T21:56:05.131Z,13.83
2019-03-22T21:58:33.590Z,13.20
2019-03-22T22:01:02.398Z,13.50
2019-03-22T22:03:30.888Z,13.20
2019-03-22T22:05:59.272Z,14.10
2019-03-22T22:08:27.682Z,14.47
2019-03-22T22:11:00.046Z,14.80
2019-03-22T22:13:26.744Z,13.87
2019-03-22T22:15:55.225Z,13.67
2019-03-22T22:18:23.629Z,12.63
2019-03-22T22:20:52.292Z,13.50
2019-03-22T22:23:20.742Z,13.17
2019-03-22T22:25:49.669Z,13.40
2019-03-22T22:28:18.395Z,13.43
2019-03-22T22:30:46.744Z,13.40
2019-03-22T22:33:15.236Z,12.60
2019-03-22T22:35:44.104Z,12.80
2019-03-22T22:38:12.606Z,14.27
2019-03-22T22:40:41.011Z,13.50
2019-03-22T22:43:09.400Z,14.03
2019-03-22T22:45:37.865Z,14.40
2019-03-22T22:48:06.281Z,14.27
2019-03-22T22:50:34.767Z,15.10
2019-03-22T22:53:03.167Z,14.83
2019-03-22T22:55:31.960Z,15.10
2019-03-22T22:58:00.351Z,15.77
2019-03-22T23:00:29.171Z,15.47
2019-03-22T23:02:58.233Z,14.57
2019-03-22T23:05:27.004Z,14.63
2019-03-22T23:07:55.459Z,15.20
2019-03-22T23:10:23.961Z,14.73
2019-03-22T23:12:52.533Z,14.33
2019-03-22T23:15:20.959Z,14.30
2019-03-22T23:17:49.342Z,15.20
2019-03-22T23:20:17.739Z,14.63
2019-03-22T23:22:46.581Z,13.53
2019-03-22T23:25:15.375Z,14.70
2019-03-22T23:27:44.057Z,14.27
2019-03-22T23:30:13.405Z,13.67
2019-03-22T23:32:41.798Z,15.30
2019-03-22T23:35:10.505Z,15.10
2019-03-22T23:37:39.213Z,13.80
2019-03-22T23:40:08.333Z,14.13
2019-03-22T23:42:36.727Z,14.37
2019-03-22T23:45:10.031Z,15.27
2019-03-22T23:47:38.772Z,14.60
2019-03-22T23:50:10.845Z,15.33
2019-03-22T23:52:39.488Z,14.60
2019-03-22T23:55:08.095Z,14.40
2019-03-22T23:57:36.512Z,14.90
